• Join FlightAware (Why Join?)
  • Login
  • US Flag 
04:20AM EDT


 

Airport Tracker/Info


-or-


 

Live Flight TrackerFlight Track Log ✈ N960DL ✈ 21-Apr-2013 ✈ KMIA - KATL

Flight Track Log - Related Links

Times and Time Zones

All times are in EDT time to prevent confusion due to time zone crossing. See the N960DL flight status page for this flight to view local times or setup timezone preferences in your user account.

Time Position Orientation Groundspeed Altitude Reporting Facility
EDT Latitude Longitude Course Direction KTS MPH feet Rate Location/Type
11:43AM 25.7983 -80.2697 336° Northwest 150 173 800  Level Miami Center
11:44AM 25.7997 -80.2006 89° East 247 284 2,500 2,100 Climbing Miami Center
11:45AM 25.8139 -80.1294 78° East 276 318 5,200 2,820 Climbing Miami Center
11:46AM 26.1188 -80.3890 339° North  Level FlightAware Approximate
11:46AM 25.8458 -80.1119 26° Northeast 262 302 6,400  Level Miami Center
11:46AM 25.8831 -80.1292 337° Northwest 276 318 6,900 660 Climbing Miami Center
11:47AM 26.2295 -80.4231 336° Northwest  Level FlightAware Approximate
11:47AM 25.9094 -80.1531 321° Northwest 281 323 7,100  Level Miami Center
11:48AM 26.3359 -80.4763 336° Northwest  Level FlightAware Approximate
11:48AM 25.9731 -80.2056 323° Northwest 291 335 7,700  Level Miami Center
11:49AM 26.0367 -80.2581 323° Northwest 298 343 10,100 1,620 Climbing Miami Center
11:50AM 26.1125 -80.3228 323° Northwest 312 359 11,000 1,860 Climbing Miami Center
11:51AM 26.1942 -80.3992 320° Northwest 351 404 13,900 2,460 Climbing Miami Center
11:52AM 26.2783 -80.4528 330° Northwest 380 437 16,000 2,100 Climbing Miami Center
11:53AM 26.3983 -80.5097 337° Northwest 407 468 18,100 2,100 Climbing Miami Center
11:54AM 26.4953 -80.5544 338° Northwest 424 488 20,200 1,860 Climbing Miami Center
11:55AM 26.6189 -80.6142 337° Northwest 433 498 21,900 1,620 Climbing Miami Center
11:56AM 26.7222 -80.6617 338° Northwest 438 504 23,500 1,500 Climbing Miami Center
11:57AM 26.8419 -80.7144 339° North 443 510 24,900 1,380 Climbing Miami Center
11:58AM 26.9661 -80.7581 343° North 454 522 26,300 1,500 Climbing Miami Center
11:59AM 27.0881 -80.8017 342° North 459 528 28,000 1,620 Climbing Miami Center
12:00PM 27.2100 -80.8456 342° North 459 528 29,600 1,500 Climbing Miami Center
12:01PM 27.3281 -80.8847 344° North 454 522 31,000 660 Climbing Miami Center
12:02PM 27.4436 -80.9286 341° North 449 517 31,000  Level Miami Center
12:03PM 27.5614 -80.9725 342° North 444 511 31,000  Level Miami Center
12:04PM 27.6831 -81.0192 341° North 444 511 31,000  Level Miami Center
12:05PM 27.7989 -81.0608 342° North 438 504 31,000  Level Miami Center
12:06PM 27.9289 -81.1103 341° North 438 504 31,000  Level Miami Center
12:07PM 28.0361 -81.1497 342° North 438 504 31,000  Level Miami Center
12:08PM 28.1683 -81.1969 343° North 438 504 31,000  Level Miami Center
12:09PM 28.2881 -81.2417 342° North 446 513 31,000  Level Miami Center
12:10PM 28.3975 -81.2792 343° North 451 519 31,000  Level Miami Center
12:10PM 28.4572 -81.3036 340° North 459 528 31,000  Level Jacksonville Center
12:11PM 28.5767 -81.3464 343° North 459 528 31,000  Level Jacksonville Center
12:12PM 28.6983 -81.3872 344° North 459 528 31,000  Level Jacksonville Center
12:13PM 28.8178 -81.4281 343° North 452 520 31,000  Level Jacksonville Center
12:14PM 28.9392 -81.4642 345° North 447 514 31,000  Level Jacksonville Center
12:15PM 29.0606 -81.5053 344° North 447 514 31,000  Level Jacksonville Center
12:16PM 29.1800 -81.5464 343° North 447 514 31,000  Level Jacksonville Center
12:17PM 29.3164 -81.5947 343° North 452 520 31,000  Level Jacksonville Center
12:18PM 29.4397 -81.6311 346° North 457 526 31,000  Level Jacksonville Center
12:19PM 29.5656 -81.6725 344° North 457 526 31,000  Level Jacksonville Center
12:20PM 29.6639 -81.7047 344° North 462 532 31,000  Level Jacksonville Center
12:21PM 29.8125 -81.7556 343° North 462 532 31,000  Level Jacksonville Center
12:22PM 29.9214 -81.7950 343° North 462 532 31,000  Level Jacksonville Center
12:23PM 30.0469 -81.8344 345° North 462 532 31,000  Level Jacksonville Center
12:24PM 30.1747 -81.8761 344° North 462 532 31,000  Level Jacksonville Center
12:25PM 30.3064 -81.8772 360° North 468 539 31,000  Level Jacksonville Center
12:26PM 30.4439 -81.8589 North 473 544 31,000  Level Jacksonville Center
12:27PM 30.5961 -81.8381 North 493 567 31,000  Level Jacksonville Center
12:28PM 30.7339 -81.8194 North 498 573 31,000  Level Jacksonville Center
12:29PM 30.8675 -81.8181 North 498 573 31,000  Level Jacksonville Center
12:30PM 30.9808 -81.8822 334° Northwest 463 533 31,000  Level Jacksonville Center
12:31PM 31.0856 -81.9464 332° Northwest 463 533 31,000  Level Jacksonville Center
12:32PM 31.2011 -82.0158 333° Northwest 465 535 31,000  Level Jacksonville Center
12:33PM 31.3164 -82.0853 333° Northwest 465 535 31,000  Level Jacksonville Center
12:34PM 31.4317 -82.1547 333° Northwest 465 535 31,000  Level Jacksonville Center
12:35PM 31.5425 -82.2247 332° Northwest 460 529 31,000  Level Jacksonville Center
12:36PM 31.6556 -82.2872 335° Northwest 450 518 31,000  Level Jacksonville Center
12:38PM 31.8547 -82.4031 334° Northwest 467 537 31,000  Level Atlanta Center
12:39PM 31.9703 -82.4719 333° Northwest 467 537 31,000  Level Atlanta Center
12:40PM 32.0656 -82.5633 321° Northwest 457 526 31,000  Level Atlanta Center
12:41PM 32.1564 -82.6578 319° Northwest 442 509 31,000 -600 Level Atlanta Center
12:42PM 32.2472 -82.7594 317° Northwest 442 509 29,800 -1,020 Descending Atlanta Center
12:43PM 32.3400 -82.8589 318° Northwest 442 509 29,000 -840 Descending Atlanta Center
12:44PM 32.4347 -82.9583 318° Northwest 448 516 28,200 -840 Descending Atlanta Center
12:45PM 32.5275 -83.0583 318° Northwest 448 516 27,400 -780 Descending Atlanta Center
12:46PM 32.6242 -83.1608 318° Northwest 448 516 26,700 -840 Descending Atlanta Center
12:47PM 32.7189 -83.2661 317° Northwest 448 516 25,800 -900 Descending Atlanta Center
12:48PM 32.8133 -83.3667 318° Northwest 453 521 24,900 -1,200 Descending Atlanta Center
12:49PM 32.9058 -83.4697 317° Northwest 453 521 23,400 -2,040 Descending Atlanta Center
12:50PM 32.9981 -83.5683 318° Northwest 448 516 20,900 -2,700 Descending Atlanta Center
12:51PM 33.0967 -83.6742 318° Northwest 442 509 18,100 -2,880 Descending Atlanta Center
12:52PM 33.1822 -83.7658 318° Northwest 425 489 15,200 -1,920 Descending Atlanta Center
12:53PM 33.2556 -83.8650 312° West 408 470 14,000 -1,140 Descending Atlanta Center
12:54PM 33.3392 -83.9917 308° West 403 464 12,800 -900 Descending Atlanta Center
12:55PM 33.4081 -84.0936 309° West 398 458 12,200 -420 Descending Atlanta Center
12:56PM 33.4667 -84.2000 303° West 375 432 12,000 -120 Descending Atlanta TRACON
12:57PM 33.5167 -84.2667 312° West 279 321 12,000 -660 Level Atlanta TRACON
12:58PM 33.5500 -84.3333 301° West 243 280 10,800 -1,800 Descending Atlanta TRACON
12:59PM 33.5500 -84.4167 270° West 236 272 8,500 -2,220 Descending Atlanta TRACON
01:00PM 33.5500 -84.4833 270° West 221 254 6,200 -2,340 Descending Atlanta TRACON
01:01PM 33.5500 -84.5667 270° West 228 262 3,800 -1,560 Descending Atlanta TRACON
01:02PM 33.5833 -84.6167 309° West 209 241 3,100 -480 Descending Atlanta TRACON
01:03PM 33.6167 -84.5833 40° Northeast 174 200 2,900 -240 Descending Atlanta TRACON